createdAt,value
2018-11-06T00:00:50.328Z,8.53
2018-11-06T00:03:37.379Z,8.54
2018-11-06T00:06:06.361Z,8.49
2018-11-06T00:08:35.255Z,8.50
2018-11-06T00:11:04.197Z,8.59
2018-11-06T00:13:33.088Z,8.64
2018-11-06T00:16:02.010Z,8.66
2018-11-06T00:18:30.933Z,8.63
2018-11-06T00:20:59.826Z,8.70
2018-11-06T00:23:28.803Z,8.76
2018-11-06T00:25:57.705Z,8.81
2018-11-06T00:28:26.615Z,8.87
2018-11-06T00:30:55.538Z,8.89
2018-11-06T00:33:24.496Z,8.86
2018-11-06T00:35:53.377Z,9.15
2018-11-06T00:38:22.314Z,9.27
2018-11-06T00:40:51.220Z,9.07
2018-11-06T00:43:20.144Z,8.95
2018-11-06T00:45:49.091Z,9.27
2018-11-06T00:48:18.019Z,9.10
2018-11-06T00:50:46.912Z,9.12
2018-11-06T00:53:15.877Z,9.05
2018-11-06T00:55:44.823Z,9.01
2018-11-06T00:58:13.688Z,8.96
2018-11-06T01:00:42.628Z,8.91
2018-11-06T01:03:11.572Z,8.89
2018-11-06T01:05:40.473Z,8.85
2018-11-06T01:08:09.438Z,8.86
2018-11-06T01:10:38.346Z,8.80
2018-11-06T01:13:07.294Z,8.83
2018-11-06T01:15:36.194Z,8.89
2018-11-06T01:18:05.408Z,8.85
2018-11-06T01:20:34.344Z,8.80
2018-11-06T01:23:03.290Z,8.78
2018-11-06T01:25:32.221Z,8.79
2018-11-06T01:28:01.133Z,8.72
2018-11-06T01:30:30.018Z,9.01
2018-11-06T01:32:58.937Z,8.79
2018-11-06T01:35:27.858Z,8.78
2018-11-06T01:37:56.779Z,8.82
2018-11-06T01:40:25.691Z,8.89
2018-11-06T01:42:54.607Z,8.92
2018-11-06T01:45:23.523Z,8.96
2018-11-06T01:47:52.524Z,9.26
2018-11-06T01:50:21.363Z,9.00
2018-11-06T01:52:50.308Z,8.90
2018-11-06T01:55:19.222Z,8.87
2018-11-06T01:57:48.137Z,8.82
2018-11-06T02:00:18.386Z,8.79
2018-11-06T02:02:47.583Z,8.73
2018-11-06T02:05:17.589Z,8.70
2018-11-06T02:07:47.741Z,8.71
2018-11-06T02:10:17.113Z,8.74
2018-11-06T02:12:46.770Z,9.17
2018-11-06T02:15:15.662Z,9.41
2018-11-06T02:17:45.225Z,9.18
2018-11-06T02:20:14.935Z,9.13
2018-11-06T02:22:44.649Z,9.13
2018-11-06T02:25:14.043Z,9.15
2018-11-06T02:27:43.057Z,9.52
2018-11-06T02:30:13.673Z,9.65
2018-11-06T02:32:43.480Z,9.38
2018-11-06T02:35:12.357Z,9.35
2018-11-06T02:37:41.277Z,9.37
2018-11-06T02:40:11.870Z,9.31
2018-11-06T02:42:41.285Z,9.33
2018-11-06T02:45:11.017Z,9.29
2018-11-06T02:47:40.382Z,9.24
2018-11-06T02:50:10.062Z,9.21
2018-11-06T02:52:39.012Z,9.20
2018-11-06T02:55:08.437Z,9.21
2018-11-06T02:57:37.445Z,9.21
2018-11-06T03:00:08.302Z,9.27
2018-11-06T03:02:37.211Z,9.25
2018-11-06T03:05:06.811Z,9.20
2018-11-06T03:07:35.675Z,9.25
2018-11-06T03:10:04.737Z,9.26
2018-11-06T03:12:33.580Z,9.35
2018-11-06T03:15:02.545Z,9.41
2018-11-06T03:17:31.460Z,9.47
2018-11-06T03:20:00.414Z,9.54
2018-11-06T03:22:29.344Z,9.57
2018-11-06T03:24:58.317Z,9.67
2018-11-06T03:27:27.234Z,9.67
2018-11-06T03:29:56.171Z,9.70
2018-11-06T03:32:25.094Z,9.75
2018-11-06T03:34:53.998Z,9.79
2018-11-06T03:37:22.941Z,9.81
2018-11-06T03:39:51.883Z,9.85
2018-11-06T03:42:21.032Z,9.83
2018-11-06T03:44:49.937Z,9.79
2018-11-06T03:47:18.873Z,9.78
2018-11-06T03:49:47.836Z,9.80
2018-11-06T03:52:16.765Z,9.78
2018-11-06T03:54:45.694Z,9.77
2018-11-06T03:57:14.620Z,9.72
2018-11-06T03:59:43.601Z,9.70
2018-11-06T04:02:12.560Z,9.74
2018-11-06T04:04:41.521Z,9.73
2018-11-06T04:07:10.420Z,9.72
2018-11-06T04:09:39.344Z,9.75
2018-11-06T04:12:08.295Z,9.77
2018-11-06T04:14:37.198Z,9.80
2018-11-06T04:17:06.143Z,9.78
2018-11-06T04:19:35.043Z,9.81
2018-11-06T04:22:03.976Z,9.80
2018-11-06T04:24:32.870Z,9.79
2018-11-06T04:27:01.839Z,9.78
2018-11-06T04:29:30.751Z,9.80
2018-11-06T04:31:59.672Z,9.80
2018-11-06T04:34:28.585Z,9.74
2018-11-06T04:36:57.519Z,9.81
2018-11-06T04:39:26.435Z,9.78
2018-11-06T04:41:55.352Z,9.87
2018-11-06T04:44:24.272Z,9.89
2018-11-06T04:46:53.176Z,9.88
2018-11-06T04:49:22.436Z,9.95
2018-11-06T04:51:52.476Z,9.91
2018-11-06T04:54:21.408Z,9.95
2018-11-06T04:56:50.287Z,9.97
2018-11-06T04:59:19.220Z,9.97
2018-11-06T05:01:48.144Z,9.98
2018-11-06T05:04:17.036Z,10.00
2018-11-06T05:06:45.972Z,10.03
2018-11-06T05:09:14.875Z,10.02
2018-11-06T05:11:43.793Z,10.03
2018-11-06T05:14:12.838Z,10.05
2018-11-06T05:16:41.725Z,10.00
2018-11-06T05:19:10.642Z,10.04
2018-11-06T05:21:39.600Z,10.06
2018-11-06T05:24:08.538Z,10.05
2018-11-06T05:26:37.484Z,10.05
2018-11-06T05:29:06.369Z,10.08
2018-11-06T05:31:35.294Z,10.14
2018-11-06T05:34:04.189Z,10.12
2018-11-06T05:36:33.122Z,10.45
2018-11-06T05:39:02.158Z,10.63
2018-11-06T05:41:30.986Z,10.44
2018-11-06T05:43:59.940Z,10.41
2018-11-06T05:46:28.816Z,10.44
2018-11-06T05:48:57.730Z,10.43
2018-11-06T05:51:26.721Z,10.41
2018-11-06T05:53:55.622Z,10.42
2018-11-06T05:56:24.527Z,10.42
2018-11-06T05:58:53.468Z,10.45
2018-11-06T06:01:22.375Z,10.42
2018-11-06T06:03:51.321Z,10.43
2018-11-06T06:06:20.236Z,10.43
2018-11-06T06:08:49.172Z,10.43
2018-11-06T06:11:18.197Z,10.41
2018-11-06T06:13:46.976Z,10.70
2018-11-06T06:16:15.885Z,10.57
2018-11-06T06:18:44.817Z,10.49
2018-11-06T06:21:13.738Z,10.52
2018-11-06T06:23:42.659Z,10.49
2018-11-06T06:26:11.585Z,10.75
2018-11-06T06:28:40.556Z,10.56
2018-11-06T06:31:09.480Z,10.55
2018-11-06T06:33:38.419Z,10.49
2018-11-06T06:36:07.348Z,10.47
2018-11-06T06:38:36.252Z,10.46
2018-11-06T06:41:05.298Z,10.42
2018-11-06T06:43:34.099Z,10.43
2018-11-06T06:46:03.094Z,10.67
2018-11-06T06:48:31.996Z,10.53
2018-11-06T06:51:00.930Z,10.48
2018-11-06T06:53:29.834Z,10.45
2018-11-06T06:55:58.779Z,10.46
2018-11-06T06:58:27.669Z,10.42
2018-11-06T07:00:56.630Z,10.45
2018-11-06T07:03:25.533Z,10.41
2018-11-06T07:05:54.544Z,10.44
2018-11-06T07:08:23.461Z,10.40
2018-11-06T07:10:52.387Z,10.39
2018-11-06T07:13:21.327Z,10.44
2018-11-06T07:15:50.225Z,10.42
2018-11-06T07:18:19.186Z,10.38
2018-11-06T07:20:48.064Z,10.41
2018-11-06T07:23:16.965Z,10.46
2018-11-06T07:25:45.903Z,10.52
2018-11-06T07:28:14.784Z,10.61
2018-11-06T07:30:43.706Z,10.60
2018-11-06T07:33:12.600Z,10.72
2018-11-06T07:35:41.786Z,10.80
2018-11-06T07:38:10.472Z,10.88
2018-11-06T07:40:39.468Z,11.22
2018-11-06T07:43:08.309Z,11.16
2018-11-06T07:45:37.245Z,11.21
2018-11-06T07:48:06.127Z,11.29
2018-11-06T07:50:35.193Z,11.33
2018-11-06T07:53:04.023Z,11.37
2018-11-06T07:55:32.969Z,11.39
2018-11-06T07:58:01.869Z,11.43
2018-11-06T08:00:30.829Z,11.48
2018-11-06T08:02:59.758Z,11.45
2018-11-06T08:05:28.672Z,11.54
2018-11-06T08:07:57.573Z,11.60
2018-11-06T08:10:26.552Z,11.68
2018-11-06T08:12:55.520Z,11.75
2018-11-06T08:15:24.444Z,11.76
2018-11-06T08:17:53.457Z,11.81
2018-11-06T08:20:22.300Z,12.13
2018-11-06T08:22:51.181Z,12.03
2018-11-06T08:25:20.075Z,12.14
2018-11-06T08:27:49.112Z,12.15
2018-11-06T08:30:17.870Z,12.26
2018-11-06T08:32:47.042Z,12.27
2018-11-06T08:35:16.905Z,12.35
2018-11-06T08:37:45.807Z,12.67
2018-11-06T08:40:16.019Z,12.56
2018-11-06T08:42:44.945Z,12.87
2018-11-06T08:45:14.933Z,12.96
2018-11-06T08:47:44.439Z,13.17
2018-11-06T08:50:14.765Z,12.97
2018-11-06T08:52:43.773Z,12.99
2018-11-06T08:55:13.926Z,13.09
2018-11-06T08:57:43.580Z,13.19
2018-11-06T09:00:14.587Z,13.28
2018-11-06T09:02:44.827Z,13.38
2018-11-06T09:05:15.418Z,13.46
2018-11-06T09:07:45.221Z,13.47
2018-11-06T09:10:15.111Z,13.51
2018-11-06T09:12:44.087Z,13.54
2018-11-06T09:15:14.690Z,13.59
2018-11-06T09:17:43.554Z,13.85
2018-11-06T09:20:13.746Z,14.08
2018-11-06T09:22:42.708Z,14.25
2018-11-06T09:25:12.891Z,14.64
2018-11-06T09:27:42.547Z,14.80
2018-11-06T09:30:16.393Z,14.93
2018-11-06T09:32:45.349Z,15.13
2018-11-06T09:35:14.818Z,15.32
2018-11-06T09:37:44.158Z,15.68
2018-11-06T09:40:17.241Z,16.34
2018-11-06T09:42:46.209Z,17.09
2018-11-06T09:45:15.214Z,17.36
2018-11-06T09:47:44.190Z,17.43
2018-11-06T09:50:14.450Z,17.37
2018-11-06T09:52:44.128Z,17.34
2018-11-06T09:55:13.373Z,17.22
2018-11-06T09:57:42.391Z,16.97
2018-11-06T10:00:13.412Z,17.11
2018-11-06T10:02:42.416Z,16.82
2018-11-06T10:05:12.194Z,16.75
2018-11-06T10:07:41.148Z,16.97
2018-11-06T10:10:12.078Z,17.69
2018-11-06T10:12:41.419Z,17.90
2018-11-06T10:15:12.361Z,17.76
2018-11-06T10:17:42.358Z,17.65
2018-11-06T10:20:12.108Z,17.87
2018-11-06T10:22:41.081Z,18.16
2018-11-06T10:25:10.076Z,18.43
2018-11-06T10:27:39.597Z,19.05
2018-11-06T10:30:10.738Z,20.48
2018-11-06T10:32:39.649Z,22.14
2018-11-06T10:35:09.351Z,23.14
2018-11-06T10:37:38.342Z,23.81
2018-11-06T10:40:13.480Z,24.47
2018-11-06T10:42:42.867Z,25.08
2018-11-06T10:45:11.816Z,25.67
2018-11-06T10:47:40.803Z,25.95
2018-11-06T10:50:11.389Z,26.30
2018-11-06T10:52:40.649Z,26.93
2018-11-06T10:55:09.884Z,27.53
2018-11-06T10:57:39.811Z,27.70
2018-11-06T11:00:29.358Z,28.08
2018-11-06T11:03:15.853Z,28.63
2018-11-06T11:05:44.774Z,28.42
2018-11-06T11:08:13.692Z,28.87
2018-11-06T11:10:42.629Z,28.98
2018-11-06T11:13:11.534Z,28.74
2018-11-06T11:15:40.458Z,28.48
2018-11-06T11:18:09.435Z,28.50
2018-11-06T11:20:38.423Z,28.14
2018-11-06T11:23:07.427Z,27.71
2018-11-06T11:25:36.401Z,26.38
2018-11-06T11:28:05.326Z,25.93
2018-11-06T11:30:34.222Z,25.18
2018-11-06T11:33:03.171Z,24.55
2018-11-06T11:35:32.085Z,23.98
2018-11-06T11:38:01.019Z,23.18
2018-11-06T11:40:29.915Z,22.69
2018-11-06T11:42:58.846Z,22.14
2018-11-06T11:45:27.780Z,21.94
2018-11-06T11:47:56.688Z,21.69
2018-11-06T11:50:25.611Z,21.52
2018-11-06T11:52:54.521Z,21.45
2018-11-06T11:55:23.439Z,21.47
2018-11-06T11:57:52.378Z,21.46
2018-11-06T12:00:21.700Z,21.50
2018-11-06T12:02:50.641Z,21.43
2018-11-06T12:05:19.541Z,21.42
2018-11-06T12:07:48.432Z,21.30
2018-11-06T12:10:17.345Z,21.33
2018-11-06T12:12:46.209Z,21.37
2018-11-06T12:15:16.479Z,21.38
2018-11-06T12:17:46.160Z,21.32
2018-11-06T12:20:15.563Z,21.35
2018-11-06T12:22:44.461Z,21.36
2018-11-06T12:25:14.085Z,21.20
2018-11-06T12:27:42.983Z,21.14
2018-11-06T12:30:16.771Z,21.07
2018-11-06T12:32:45.850Z,21.24
2018-11-06T12:35:14.968Z,21.02
2018-11-06T12:37:43.905Z,21.01
2018-11-06T12:40:13.579Z,21.05
2018-11-06T12:42:42.885Z,21.18
2018-11-06T12:45:13.125Z,21.09
2018-11-06T12:47:42.414Z,21.03
2018-11-06T12:50:11.414Z,20.93
2018-11-06T12:52:40.733Z,20.77
2018-11-06T12:55:11.190Z,20.84
2018-11-06T12:57:40.169Z,20.91
2018-11-06T13:00:12.319Z,20.95
2018-11-06T13:02:41.251Z,20.73
2018-11-06T13:05:10.765Z,20.65
2018-11-06T13:07:41.249Z,20.56
2018-11-06T13:10:11.287Z,20.52
2018-11-06T13:12:40.701Z,20.45
2018-11-06T13:15:09.852Z,20.48
2018-11-06T13:17:38.984Z,20.48
2018-11-06T13:20:09.957Z,20.50
2018-11-06T13:22:40.062Z,20.46
2018-11-06T13:25:09.228Z,20.42
2018-11-06T13:27:39.360Z,20.60
2018-11-06T13:30:10.770Z,20.49
2018-11-06T13:32:40.808Z,20.43
2018-11-06T13:35:10.316Z,20.53
2018-11-06T13:37:39.678Z,20.35
2018-11-06T13:40:10.901Z,20.21
2018-11-06T13:42:39.968Z,20.12
2018-11-06T13:45:11.637Z,19.97
2018-11-06T13:47:40.433Z,19.88
2018-11-06T13:50:09.355Z,19.75
2018-11-06T13:52:38.553Z,19.76
2018-11-06T13:55:08.689Z,19.75
2018-11-06T13:57:37.601Z,19.79
2018-11-06T14:00:10.338Z,19.79
2018-11-06T14:02:39.261Z,19.83
2018-11-06T14:05:08.172Z,19.83
2018-11-06T14:07:37.095Z,19.83
2018-11-06T14:10:06.345Z,19.84
2018-11-06T14:12:35.281Z,19.79
2018-11-06T14:15:04.181Z,19.71
2018-11-06T14:17:33.071Z,19.68
2018-11-06T14:20:02.002Z,19.65
2018-11-06T14:22:31.196Z,19.60
2018-11-06T14:25:00.104Z,19.74
2018-11-06T14:27:29.161Z,19.85
2018-11-06T14:29:57.976Z,19.65
2018-11-06T14:32:26.863Z,19.63
2018-11-06T14:34:55.843Z,19.61
2018-11-06T14:37:25.110Z,19.60
2018-11-06T14:39:54.026Z,19.53
2018-11-06T14:42:22.981Z,19.45
2018-11-06T14:44:51.818Z,19.36
2018-11-06T14:47:20.723Z,19.29
2018-11-06T14:49:49.639Z,19.15
2018-11-06T14:52:18.556Z,19.32
2018-11-06T14:54:47.472Z,19.07
2018-11-06T14:57:16.389Z,18.95
2018-11-06T14:59:45.331Z,18.87
2018-11-06T15:02:14.217Z,19.02
2018-11-06T15:04:43.137Z,18.73
2018-11-06T15:07:12.064Z,18.64
2018-11-06T15:09:41.013Z,18.49
2018-11-06T15:12:09.956Z,18.71
2018-11-06T15:14:38.920Z,18.43
2018-11-06T15:17:07.878Z,18.36
2018-11-06T15:19:37.010Z,18.59
2018-11-06T15:22:05.942Z,18.31
2018-11-06T15:24:34.854Z,18.51
2018-11-06T15:27:03.782Z,18.22
2018-11-06T15:29:32.716Z,18.08
2018-11-06T15:32:01.657Z,18.27
2018-11-06T15:34:30.596Z,17.95
2018-11-06T15:36:59.557Z,17.84
2018-11-06T15:39:28.605Z,17.74
2018-11-06T15:41:57.640Z,17.91
2018-11-06T15:44:26.383Z,17.62
2018-11-06T15:46:55.330Z,17.78
2018-11-06T15:49:24.294Z,17.47
2018-11-06T15:51:53.213Z,17.34
2018-11-06T15:54:22.197Z,17.23
2018-11-06T15:56:51.055Z,17.09
2018-11-06T15:59:20.033Z,16.92
2018-11-06T16:01:49.070Z,16.78
2018-11-06T16:04:17.970Z,16.66
2018-11-06T16:06:46.908Z,16.57
2018-11-06T16:09:15.804Z,16.82
2018-11-06T16:11:45.372Z,16.59
2018-11-06T16:14:14.832Z,16.47
2018-11-06T16:16:44.304Z,16.39
2018-11-06T16:19:13.231Z,16.26
2018-11-06T16:21:42.200Z,16.20
2018-11-06T16:24:11.168Z,16.12
2018-11-06T16:26:40.067Z,16.03
2018-11-06T16:29:09.025Z,15.95
2018-11-06T16:31:38.006Z,15.89
2018-11-06T16:34:06.952Z,15.86
2018-11-06T16:36:35.881Z,15.81
2018-11-06T16:39:07.737Z,15.73
2018-11-06T16:41:36.775Z,15.70
2018-11-06T16:44:05.667Z,15.71
2018-11-06T16:46:34.539Z,15.69
2018-11-06T16:49:03.472Z,15.63
2018-11-06T16:51:32.400Z,15.89
2018-11-06T16:54:01.339Z,15.63
2018-11-06T16:56:30.291Z,15.58
2018-11-06T16:58:59.241Z,15.50
2018-11-06T17:01:28.319Z,15.51
2018-11-06T17:03:57.276Z,15.45
2018-11-06T17:06:35.355Z,15.45
2018-11-06T17:09:06.198Z,15.38
2018-11-06T17:11:35.088Z,15.32
2018-11-06T17:14:04.049Z,15.27
2018-11-06T17:16:33.228Z,15.24
2018-11-06T17:19:02.180Z,15.24
2018-11-06T17:21:31.111Z,15.18
2018-11-06T17:24:00.059Z,15.57
2018-11-06T17:26:29.060Z,15.74
2018-11-06T17:28:58.015Z,15.54
2018-11-06T17:31:27.112Z,15.54
2018-11-06T17:33:56.052Z,15.58
2018-11-06T17:36:24.969Z,15.60
2018-11-06T17:38:53.911Z,15.62
2018-11-06T17:41:22.873Z,15.90
2018-11-06T17:43:51.838Z,15.76
2018-11-06T17:46:20.855Z,15.76
2018-11-06T17:48:50.123Z,15.76
2018-11-06T17:51:19.059Z,15.70
2018-11-06T17:53:48.013Z,15.94
2018-11-06T17:56:17.014Z,15.76
2018-11-06T17:58:46.119Z,15.73
2018-11-06T18:01:15.096Z,15.68
2018-11-06T18:03:44.048Z,15.59
2018-11-06T18:06:13.014Z,15.55
2018-11-06T18:08:41.948Z,15.46
2018-11-06T18:11:10.880Z,15.39
2018-11-06T18:13:39.947Z,15.38
2018-11-06T18:16:08.900Z,15.26
2018-11-06T18:18:37.885Z,15.30
2018-11-06T18:21:06.924Z,15.25
2018-11-06T18:23:35.850Z,15.24
2018-11-06T18:26:04.771Z,15.15
2018-11-06T18:28:33.894Z,15.11
2018-11-06T18:31:02.877Z,15.07
2018-11-06T18:33:31.875Z,15.08
2018-11-06T18:36:00.823Z,15.12
2018-11-06T18:38:29.895Z,15.15
2018-11-06T18:40:58.740Z,15.11
2018-11-06T18:43:27.706Z,15.14
2018-11-06T18:45:56.612Z,15.11
2018-11-06T18:48:25.564Z,15.08
2018-11-06T18:50:54.502Z,15.07
2018-11-06T18:53:23.480Z,14.99
2018-11-06T18:55:52.394Z,14.97
2018-11-06T18:58:21.433Z,14.97
2018-11-06T19:00:50.334Z,14.95
2018-11-06T19:03:19.268Z,14.94
2018-11-06T19:05:48.212Z,15.20
2018-11-06T19:08:17.226Z,15.03
2018-11-06T19:10:46.278Z,14.99
2018-11-06T19:13:15.164Z,14.96
2018-11-06T19:15:44.103Z,14.95
2018-11-06T19:18:13.048Z,14.98
2018-11-06T19:20:41.964Z,14.95
2018-11-06T19:23:10.942Z,14.91
2018-11-06T19:25:39.852Z,14.91
2018-11-06T19:28:08.817Z,14.88
2018-11-06T19:30:37.828Z,14.88
2018-11-06T19:33:06.936Z,14.86
2018-11-06T19:35:35.905Z,14.83
2018-11-06T19:38:04.889Z,14.83
2018-11-06T19:40:33.919Z,14.82
2018-11-06T19:43:02.939Z,14.78
2018-11-06T19:45:31.765Z,14.69
2018-11-06T19:48:00.703Z,14.65
2018-11-06T19:50:29.623Z,14.59
2018-11-06T19:52:58.743Z,14.57
2018-11-06T19:55:27.790Z,14.60
2018-11-06T19:57:56.746Z,14.65
2018-11-06T20:00:25.701Z,14.63
2018-11-06T20:02:54.950Z,14.64
2018-11-06T20:05:23.964Z,14.64
2018-11-06T20:07:53.284Z,14.66
2018-11-06T20:10:23.760Z,14.64
2018-11-06T20:12:53.838Z,14.62
2018-11-06T20:15:22.924Z,14.68
2018-11-06T20:17:51.984Z,14.74
2018-11-06T20:20:25.132Z,14.81
2018-11-06T20:22:54.125Z,14.80
2018-11-06T20:25:23.205Z,14.71
2018-11-06T20:27:52.190Z,14.73
2018-11-06T20:30:22.490Z,14.77
2018-11-06T20:32:51.399Z,14.73
2018-11-06T20:35:20.499Z,14.75
2018-11-06T20:37:49.500Z,14.74
2018-11-06T20:40:19.837Z,14.72
2018-11-06T20:42:48.955Z,14.78
2018-11-06T20:45:18.896Z,14.80
2018-11-06T20:47:47.838Z,14.74
2018-11-06T20:50:17.990Z,14.97
2018-11-06T20:52:47.252Z,14.74
2018-11-06T20:55:16.926Z,14.73
2018-11-06T20:57:46.155Z,14.69
2018-11-06T21:00:29.080Z,14.66
2018-11-06T21:03:02.053Z,14.63
2018-11-06T21:05:30.972Z,14.63
2018-11-06T21:07:59.963Z,14.61
2018-11-06T21:10:30.293Z,14.61
2018-11-06T21:12:59.311Z,14.62
2018-11-06T21:15:28.263Z,14.57
2018-11-06T21:17:57.413Z,14.42
2018-11-06T21:20:26.679Z,14.42
2018-11-06T21:22:55.560Z,14.38
2018-11-06T21:25:24.842Z,14.32
2018-11-06T21:27:53.672Z,14.27
2018-11-06T21:30:22.652Z,14.21
2018-11-06T21:32:52.627Z,14.23
2018-11-06T21:35:21.612Z,14.21
2018-11-06T21:37:50.638Z,14.47
2018-11-06T21:40:20.853Z,14.28
2018-11-06T21:42:50.131Z,14.27
2018-11-06T21:45:19.441Z,14.21
2018-11-06T21:47:49.241Z,14.25
2018-11-06T21:50:18.683Z,14.27
2018-11-06T21:52:47.632Z,14.15
2018-11-06T21:55:17.758Z,14.07
2018-11-06T21:57:46.786Z,14.31
2018-11-06T22:00:19.856Z,14.10
2018-11-06T22:02:48.748Z,14.17
2018-11-06T22:05:18.953Z,14.21
2018-11-06T22:07:48.320Z,14.21
2018-11-06T22:10:18.616Z,14.16
2018-11-06T22:12:47.622Z,14.08
2018-11-06T22:15:17.602Z,13.97
2018-11-06T22:17:46.653Z,13.99
2018-11-06T22:20:16.791Z,13.98
2018-11-06T22:22:46.339Z,14.03
2018-11-06T22:25:15.286Z,14.04
2018-11-06T22:27:44.527Z,14.05
2018-11-06T22:30:14.628Z,14.08
2018-11-06T22:32:44.258Z,14.04
2018-11-06T22:35:14.366Z,14.31
2018-11-06T22:37:43.383Z,14.14
2018-11-06T22:40:13.571Z,14.16
2018-11-06T22:42:42.540Z,14.18
2018-11-06T22:45:12.995Z,14.15
2018-11-06T22:47:42.061Z,14.11
2018-11-06T22:50:12.830Z,14.16
2018-11-06T22:52:42.230Z,14.21
2018-11-06T22:55:11.192Z,14.52
2018-11-06T22:57:40.132Z,14.34
2018-11-06T23:00:18.029Z,14.29
2018-11-06T23:02:46.952Z,14.26
2018-11-06T23:05:15.910Z,14.27
2018-11-06T23:08:02.487Z,14.28
2018-11-06T23:10:31.445Z,14.25
2018-11-06T23:13:00.351Z,14.22
2018-11-06T23:15:29.311Z,14.25
2018-11-06T23:17:58.289Z,14.26
2018-11-06T23:20:27.277Z,14.28
2018-11-06T23:22:56.162Z,14.28
2018-11-06T23:25:25.084Z,14.25
2018-11-06T23:27:54.024Z,14.29
2018-11-06T23:30:22.939Z,14.31
2018-11-06T23:32:51.884Z,14.29
2018-11-06T23:35:20.813Z,14.25
2018-11-06T23:37:49.783Z,14.30
2018-11-06T23:40:18.708Z,14.29
2018-11-06T23:42:47.651Z,14.22
2018-11-06T23:45:16.585Z,14.11
2018-11-06T23:47:45.528Z,14.04
2018-11-06T23:50:14.488Z,14.01
2018-11-06T23:52:43.399Z,13.98
2018-11-06T23:55:12.399Z,13.85
2018-11-06T23:57:47.776Z,13.78
